createdAt,value
2022-10-01T00:01:13.293Z,5.30
2022-10-01T00:03:40.783Z,5.40
2022-10-01T00:06:14.631Z,5.40
2022-10-01T00:08:42.755Z,5.50
2022-10-01T00:11:15.499Z,5.50
2022-10-01T00:13:43.754Z,5.50
2022-10-01T00:16:13.723Z,5.50
2022-10-01T00:18:43.076Z,5.50
2022-10-01T00:21:12.533Z,5.50
2022-10-01T00:23:39.498Z,5.50
2022-10-01T00:26:15.526Z,5.50
2022-10-01T00:28:43.874Z,5.40
2022-10-01T00:31:11.403Z,5.40
2022-10-01T00:33:38.883Z,5.40
2022-10-01T00:36:07.577Z,5.40
2022-10-01T00:38:34.840Z,5.30
2022-10-01T00:41:03.018Z,5.20
2022-10-01T00:43:35.580Z,5.20
2022-10-01T00:46:13.131Z,5.10
2022-10-01T00:49:07.727Z,5.00
2022-10-01T00:51:43.137Z,4.90
2022-10-01T00:54:24.537Z,4.80
2022-10-01T00:56:55.538Z,4.70
2022-10-01T00:59:22.583Z,4.70
2022-10-01T01:01:49.788Z,4.60
2022-10-01T01:04:17.025Z,4.50
2022-10-01T01:06:51.515Z,4.40
2022-10-01T01:09:18.444Z,4.20
2022-10-01T01:11:52.764Z,4.00
2022-10-01T01:14:39.944Z,3.90
2022-10-01T01:17:19.856Z,3.70
2022-10-01T01:19:50.596Z,3.70
2022-10-01T01:22:21.449Z,3.60
2022-10-01T01:24:56.278Z,3.60
2022-10-01T01:27:29.129Z,3.50
2022-10-01T01:30:06.521Z,3.50
2022-10-01T01:32:46.412Z,3.50
2022-10-01T01:35:32.277Z,3.40
2022-10-01T01:38:10.505Z,3.40
2022-10-01T01:40:40.162Z,3.40
2022-10-01T01:43:14.079Z,3.40
2022-10-01T01:45:42.333Z,3.40
2022-10-01T01:48:13.188Z,3.50
2022-10-01T01:50:52.148Z,3.60
2022-10-01T01:53:20.322Z,3.70
2022-10-01T01:55:49.411Z,3.80
2022-10-01T01:58:20.418Z,3.80
2022-10-01T02:00:52.527Z,3.80
2022-10-01T02:03:25.891Z,3.80
2022-10-01T02:06:42.702Z,3.80
2022-10-01T02:09:26.866Z,3.80
2022-10-01T02:12:22.893Z,3.80
2022-10-01T02:15:07.046Z,3.80
2022-10-01T02:17:53.110Z,3.80
2022-10-01T02:20:39.723Z,3.80
2022-10-01T02:23:11.386Z,3.70
2022-10-01T02:25:43.831Z,3.60
2022-10-01T02:28:15.598Z,3.60
2022-10-01T02:30:45.109Z,3.60
2022-10-01T02:33:18.391Z,3.60
2022-10-01T02:35:47.061Z,3.70
2022-10-01T02:38:16.858Z,3.70
2022-10-01T02:40:46.443Z,3.70
2022-10-01T02:43:19.031Z,3.70
2022-10-01T02:45:55.482Z,3.70
2022-10-01T02:48:22.583Z,3.70
2022-10-01T02:50:52.754Z,3.80
2022-10-01T02:53:22.930Z,3.90
2022-10-01T02:55:51.164Z,3.80
2022-10-01T02:58:19.523Z,3.80
2022-10-01T03:00:46.498Z,3.90
2022-10-01T03:03:13.460Z,3.90
2022-10-01T03:05:41.143Z,3.80
2022-10-01T03:08:08.241Z,3.90
2022-10-01T03:10:35.230Z,4.00
2022-10-01T03:13:02.216Z,4.10
2022-10-01T03:15:29.449Z,4.00
2022-10-01T03:17:56.487Z,4.00
2022-10-01T03:20:23.923Z,4.00
2022-10-01T03:22:51.018Z,4.00
2022-10-01T03:25:18.144Z,4.00
2022-10-01T03:27:46.599Z,4.00
2022-10-01T03:30:14.120Z,4.10
2022-10-01T03:32:41.120Z,4.10
2022-10-01T03:35:08.438Z,4.10
2022-10-01T03:37:35.576Z,4.10
2022-10-01T03:40:02.661Z,4.20
2022-10-01T03:42:29.640Z,4.30
2022-10-01T03:44:56.594Z,4.40
2022-10-01T03:47:24.491Z,4.50
2022-10-01T03:49:51.850Z,4.60
2022-10-01T03:52:19.189Z,4.60
2022-10-01T03:54:46.153Z,4.70
2022-10-01T03:57:13.105Z,4.70
2022-10-01T03:59:40.060Z,4.70
2022-10-01T04:02:07.776Z,4.80
2022-10-01T04:04:35.094Z,4.90
2022-10-01T04:07:02.084Z,4.90
2022-10-01T04:09:29.048Z,4.90
2022-10-01T04:11:56.170Z,4.90
2022-10-01T04:14:25.967Z,5.00
2022-10-01T04:16:53.226Z,5.00
2022-10-01T04:19:20.553Z,5.00
2022-10-01T04:21:48.072Z,5.00
2022-10-01T04:24:15.067Z,5.00
2022-10-01T04:26:42.085Z,5.00
2022-10-01T04:29:09.718Z,5.10
2022-10-01T04:31:37.394Z,5.10
2022-10-01T04:34:04.762Z,5.10
2022-10-01T04:36:31.923Z,5.20
2022-10-01T04:39:02.481Z,5.20
2022-10-01T04:41:31.274Z,5.30
2022-10-01T04:44:00.105Z,5.40
2022-10-01T04:46:28.605Z,5.40
2022-10-01T04:48:55.675Z,5.40
2022-10-01T04:51:22.688Z,5.40
2022-10-01T04:53:49.723Z,5.40
2022-10-01T04:56:16.938Z,5.40
2022-10-01T04:58:43.888Z,5.40
2022-10-01T05:01:10.878Z,5.40
2022-10-01T05:03:38.135Z,5.50
2022-10-01T05:06:05.188Z,5.50
2022-10-01T05:08:32.139Z,5.60
2022-10-01T05:11:00.569Z,5.60
2022-10-01T05:13:30.234Z,5.60
2022-10-01T05:15:58.037Z,5.70
2022-10-01T05:18:25.249Z,5.80
2022-10-01T05:20:52.288Z,5.90
2022-10-01T05:23:19.244Z,6.00
2022-10-01T05:25:47.121Z,6.00
2022-10-01T05:28:17.224Z,6.10
2022-10-01T05:30:48.184Z,6.20
2022-10-01T05:33:15.149Z,6.30
2022-10-01T05:35:42.109Z,6.20
2022-10-01T05:38:09.055Z,6.30
2022-10-01T05:40:36.342Z,6.50
2022-10-01T05:43:04.523Z,6.60
2022-10-01T05:45:32.478Z,6.70
2022-10-01T05:48:01.400Z,6.80
2022-10-01T05:50:31.423Z,6.90
2022-10-01T05:52:59.413Z,6.90
2022-10-01T05:55:27.436Z,7.00
2022-10-01T05:57:59.076Z,7.00
2022-10-01T06:00:29.413Z,6.90
2022-10-01T06:03:01.589Z,6.90
2022-10-01T06:05:30.710Z,7.00
2022-10-01T06:07:57.892Z,7.10
2022-10-01T06:10:25.664Z,7.20
2022-10-01T06:12:53.107Z,7.30
2022-10-01T06:15:20.036Z,7.30
2022-10-01T06:17:47.068Z,7.40
2022-10-01T06:20:17.214Z,7.40
2022-10-01T06:22:44.926Z,7.50
2022-10-01T06:25:15.057Z,7.60
2022-10-01T06:27:42.067Z,7.60
2022-10-01T06:30:09.661Z,7.70
2022-10-01T06:32:36.867Z,7.70
2022-10-01T06:35:04.434Z,7.70
2022-10-01T06:37:31.397Z,7.80
2022-10-01T06:39:58.356Z,7.80
2022-10-01T06:42:25.421Z,7.90
2022-10-01T06:44:52.453Z,7.90
2022-10-01T06:47:19.416Z,7.90
2022-10-01T06:49:47.779Z,7.90
2022-10-01T06:52:33.831Z,7.90
2022-10-01T06:55:01.635Z,7.90
2022-10-01T06:57:29.301Z,8.00
2022-10-01T06:59:57.927Z,8.00
2022-10-01T07:02:30.459Z,8.10
2022-10-01T07:04:59.250Z,8.10
2022-10-01T07:07:35.402Z,8.10
2022-10-01T07:10:04.707Z,8.20
2022-10-01T07:12:31.697Z,8.20
2022-10-01T07:14:58.740Z,8.20
2022-10-01T07:17:25.789Z,8.20
2022-10-01T07:19:52.976Z,8.10
2022-10-01T07:22:20.470Z,8.10
2022-10-01T07:24:47.444Z,8.00
2022-10-01T07:27:14.840Z,8.10
2022-10-01T07:29:42.027Z,8.10
2022-10-01T07:32:10.553Z,8.30
2022-10-01T07:34:41.911Z,8.40
2022-10-01T07:37:09.538Z,8.60
2022-10-01T07:39:37.524Z,8.60
2022-10-01T07:42:05.979Z,8.70
2022-10-01T07:44:33.264Z,8.70
2022-10-01T07:47:00.920Z,8.80
2022-10-01T07:49:27.956Z,8.90
2022-10-01T07:51:55.842Z,9.10
2022-10-01T07:54:22.942Z,9.40
2022-10-01T07:56:52.989Z,9.50
2022-10-01T07:59:20.009Z,9.30
2022-10-01T08:01:51.847Z,9.30
2022-10-01T08:04:38.344Z,9.10
2022-10-01T08:07:05.776Z,9.10
2022-10-01T08:09:32.872Z,9.10
2022-10-01T08:11:59.852Z,9.10
2022-10-01T08:14:27.135Z,9.10
2022-10-01T08:16:57.581Z,9.10
2022-10-01T08:19:25.326Z,9.00
2022-10-01T08:21:52.904Z,8.90
2022-10-01T08:24:20.274Z,8.90
2022-10-01T08:26:53.474Z,8.90
2022-10-01T08:29:20.519Z,9.00
2022-10-01T08:31:48.001Z,9.00
2022-10-01T08:34:15.303Z,8.90
2022-10-01T08:36:42.356Z,8.90
2022-10-01T08:39:09.652Z,8.90
2022-10-01T08:41:54.876Z,9.00
2022-10-01T08:44:29.990Z,9.10
2022-10-01T08:47:08.909Z,9.40
2022-10-01T08:49:46.396Z,9.40
2022-10-01T08:52:33.840Z,10.00
2022-10-01T08:55:09.800Z,11.30
2022-10-01T08:57:44.967Z,11.80
2022-10-01T09:00:14.738Z,12.50
2022-10-01T09:02:43.516Z,13.10
2022-10-01T09:05:37.707Z,13.70
2022-10-01T09:10:46.015Z,16.10
2022-10-01T09:13:31.578Z,16.20
2022-10-01T09:16:13.999Z,15.70
2022-10-01T09:18:47.654Z,14.80
2022-10-01T09:21:21.088Z,14.20
2022-10-01T09:24:03.361Z,14.00
2022-10-01T09:26:31.341Z,13.80
2022-10-01T09:29:01.115Z,13.80
2022-10-01T09:31:41.258Z,13.70
2022-10-01T09:34:19.475Z,13.50
2022-10-01T09:36:58.467Z,14.10
2022-10-01T09:39:34.966Z,13.80
2022-10-01T09:42:02.017Z,13.10
2022-10-01T09:44:31.429Z,12.70
2022-10-01T09:46:59.303Z,12.20
2022-10-01T09:49:31.169Z,12.00
2022-10-01T09:52:28.308Z,11.70
2022-10-01T09:55:31.315Z,11.60
2022-10-01T09:58:17.264Z,11.60
2022-10-01T10:00:44.976Z,11.60
2022-10-01T10:03:23.714Z,11.40
2022-10-01T10:05:51.211Z,11.30
2022-10-01T10:08:36.482Z,11.10
2022-10-01T10:11:08.855Z,11.20
2022-10-01T10:13:48.808Z,11.40
2022-10-01T10:16:24.950Z,11.50
2022-10-01T10:19:03.220Z,11.50
2022-10-01T10:21:34.036Z,11.70
2022-10-01T10:24:03.276Z,12.10
2022-10-01T10:26:36.223Z,12.60
2022-10-01T10:29:06.004Z,12.70
2022-10-01T10:31:44.850Z,13.20
2022-10-01T10:34:16.605Z,13.40
2022-10-01T10:36:45.925Z,13.20
2022-10-01T10:39:24.741Z,12.80
2022-10-01T10:41:53.112Z,12.30
2022-10-01T10:44:24.000Z,12.10
2022-10-01T10:46:53.623Z,12.10
2022-10-01T10:49:29.601Z,12.10
2022-10-01T10:51:58.156Z,12.20
2022-10-01T10:54:29.314Z,12.20
2022-10-01T10:57:16.419Z,12.00
2022-10-01T10:59:57.892Z,11.90
2022-10-01T11:02:26.902Z,11.70
2022-10-01T11:04:54.996Z,11.70
2022-10-01T11:07:25.195Z,11.80
2022-10-01T11:09:55.245Z,11.90
2022-10-01T11:12:32.831Z,12.00
2022-10-01T11:15:27.520Z,12.00
2022-10-01T11:18:20.093Z,11.90
2022-10-01T11:21:02.118Z,11.80
2022-10-01T11:23:51.053Z,11.70
2022-10-01T11:26:53.285Z,11.60
2022-10-01T11:29:39.376Z,11.50
2022-10-01T11:32:29.398Z,11.50
2022-10-01T11:35:34.577Z,11.40
2022-10-01T11:38:05.428Z,11.30
2022-10-01T11:40:53.679Z,11.30
2022-10-01T11:43:44.414Z,11.60
2022-10-01T11:46:46.579Z,12.40
2022-10-01T11:49:34.283Z,13.50
2022-10-01T11:52:10.549Z,15.20
2022-10-01T11:54:56.205Z,15.60
2022-10-01T11:57:43.136Z,14.30
2022-10-01T12:00:13.200Z,13.70
2022-10-01T12:02:52.781Z,13.00
2022-10-01T12:05:28.677Z,12.20
2022-10-01T12:08:19.177Z,12.00
2022-10-01T12:11:29.439Z,11.80
2022-10-01T12:14:04.583Z,11.60
2022-10-01T12:16:55.210Z,11.40
2022-10-01T12:19:36.422Z,11.30
2022-10-01T12:22:09.291Z,11.30
2022-10-01T12:24:41.101Z,11.30
2022-10-01T12:27:45.716Z,11.40
2022-10-01T12:30:21.893Z,11.60
2022-10-01T12:33:15.712Z,12.00
2022-10-01T12:35:55.388Z,14.00
2022-10-01T12:38:43.804Z,16.00
2022-10-01T12:41:45.542Z,16.60
2022-10-01T12:44:21.846Z,17.00
2022-10-01T12:47:02.709Z,16.90
2022-10-01T12:49:50.604Z,17.40
2022-10-01T12:52:45.905Z,18.00
2022-10-01T12:55:39.449Z,17.00
2022-10-01T12:58:37.353Z,16.70
2022-10-01T13:01:13.940Z,17.20
2022-10-01T13:04:15.123Z,15.40
2022-10-01T13:06:51.059Z,14.00
2022-10-01T13:09:48.828Z,13.60
2022-10-01T13:12:56.663Z,14.80
2022-10-01T13:15:35.103Z,16.20
2022-10-01T13:18:12.339Z,17.20
2022-10-01T13:21:23.222Z,17.20
2022-10-01T13:24:04.453Z,17.10
2022-10-01T13:26:56.308Z,17.40
2022-10-01T13:29:29.412Z,17.20
2022-10-01T13:32:00.624Z,17.10
2022-10-01T13:34:42.288Z,16.40
2022-10-01T13:37:19.257Z,16.20
2022-10-01T13:39:47.692Z,16.20
2022-10-01T13:42:26.202Z,15.90
2022-10-01T13:44:57.644Z,15.90
2022-10-01T13:47:26.003Z,15.90
2022-10-01T13:50:23.996Z,15.90
2022-10-01T13:52:52.118Z,15.60
2022-10-01T13:55:30.563Z,15.70
2022-10-01T13:58:31.666Z,16.10
2022-10-01T14:01:02.024Z,15.70
2022-10-01T14:03:47.939Z,15.40
2022-10-01T14:06:42.772Z,15.50
2022-10-01T14:09:18.762Z,16.10
2022-10-01T14:12:10.016Z,16.50
2022-10-01T14:14:58.889Z,16.10
2022-10-01T14:17:31.673Z,16.00
2022-10-01T14:20:01.219Z,16.00
2022-10-01T14:23:02.049Z,15.60
2022-10-01T14:26:07.243Z,15.60
2022-10-01T14:29:16.869Z,15.60
2022-10-01T14:31:56.074Z,15.90
2022-10-01T14:34:26.320Z,15.60
2022-10-01T14:36:54.609Z,15.10
2022-10-01T14:39:27.076Z,15.10
2022-10-01T14:41:55.974Z,15.70
2022-10-01T14:44:24.655Z,16.00
2022-10-01T14:46:53.671Z,15.80
2022-10-01T14:49:27.093Z,15.90
2022-10-01T14:52:01.427Z,15.60
2022-10-01T14:54:30.362Z,14.40
2022-10-01T14:56:57.617Z,13.60
2022-10-01T14:59:34.998Z,12.90
2022-10-01T15:02:04.395Z,12.40
2022-10-01T15:04:31.614Z,12.10
2022-10-01T15:07:04.985Z,12.00
2022-10-01T15:09:34.114Z,11.80
2022-10-01T15:12:02.099Z,11.70
2022-10-01T15:14:29.221Z,11.60
2022-10-01T15:16:56.509Z,11.40
2022-10-01T15:19:24.237Z,11.40
2022-10-01T15:21:56.775Z,11.30
2022-10-01T15:24:26.140Z,11.30
2022-10-01T15:26:55.970Z,11.30
2022-10-01T15:29:23.441Z,11.20
2022-10-01T15:31:53.247Z,11.20
2022-10-01T15:34:22.727Z,11.10
2022-10-01T15:36:50.485Z,11.10
2022-10-01T15:39:38.468Z,11.10
2022-10-01T15:42:20.900Z,11.00
2022-10-01T15:44:50.804Z,11.00
2022-10-01T15:47:21.271Z,11.00
2022-10-01T15:50:12.425Z,10.90
2022-10-01T15:52:54.694Z,10.80
2022-10-01T15:55:32.350Z,10.90
2022-10-01T15:58:11.867Z,10.80
2022-10-01T16:00:47.964Z,10.80
2022-10-01T16:03:27.402Z,10.70
2022-10-01T16:05:55.335Z,10.60
2022-10-01T16:08:34.513Z,10.60
2022-10-01T16:11:31.976Z,10.60
2022-10-01T16:14:17.856Z,10.50
2022-10-01T16:16:44.917Z,10.40
2022-10-01T16:19:23.400Z,10.40
2022-10-01T16:22:14.810Z,10.30
2022-10-01T16:25:12.543Z,10.20
2022-10-01T16:28:01.268Z,10.10
2022-10-01T16:30:29.812Z,10.00
2022-10-01T16:33:02.554Z,9.90
2022-10-01T16:35:36.009Z,9.90
2022-10-01T16:38:08.456Z,9.80
2022-10-01T16:40:40.668Z,9.70
2022-10-01T16:43:09.144Z,9.70
2022-10-01T16:45:40.443Z,9.70
2022-10-01T16:48:15.713Z,9.60
2022-10-01T16:50:44.240Z,9.50
2022-10-01T16:53:13.039Z,9.40
2022-10-01T16:55:39.985Z,9.30
2022-10-01T16:58:07.238Z,9.30
2022-10-01T17:00:37.130Z,9.20
2022-10-01T17:03:06.757Z,9.20
2022-10-01T17:05:36.101Z,9.20
2022-10-01T17:08:11.247Z,9.20
2022-10-01T17:10:40.626Z,9.10
2022-10-01T17:13:07.859Z,9.00
2022-10-01T17:15:35.027Z,9.10
2022-10-01T17:18:02.095Z,9.00
2022-10-01T17:20:30.535Z,9.10
2022-10-01T17:22:58.610Z,9.10
2022-10-01T17:25:32.405Z,9.10
2022-10-01T17:28:01.648Z,9.10
2022-10-01T17:30:29.911Z,9.10
2022-10-01T17:32:58.861Z,9.10
2022-10-01T17:35:27.524Z,9.10
2022-10-01T17:37:54.860Z,9.00
2022-10-01T17:40:21.917Z,9.10
2022-10-01T17:42:49.006Z,9.00
2022-10-01T17:45:16.321Z,9.10
2022-10-01T17:47:48.556Z,9.10
2022-10-01T17:50:16.690Z,9.10
2022-10-01T17:52:46.520Z,9.00
2022-10-01T17:55:13.653Z,9.00
2022-10-01T17:57:40.693Z,9.10
2022-10-01T18:00:08.552Z,9.10
2022-10-01T18:02:43.588Z,9.10
2022-10-01T18:05:14.537Z,9.00
2022-10-01T18:07:42.280Z,9.00
2022-10-01T18:10:12.332Z,9.00
2022-10-01T18:12:39.690Z,9.00
2022-10-01T18:15:07.298Z,9.00
2022-10-01T18:17:36.539Z,9.00
2022-10-01T18:20:08.125Z,9.00
2022-10-01T18:22:37.947Z,9.00
2022-10-01T18:25:07.001Z,9.00
2022-10-01T18:27:34.075Z,9.00
2022-10-01T18:30:01.091Z,9.00
2022-10-01T18:32:33.279Z,9.00
2022-10-01T18:35:02.066Z,8.90
2022-10-01T18:37:40.337Z,8.90
2022-10-01T18:40:10.663Z,9.00
2022-10-01T18:42:57.892Z,9.00
2022-10-01T18:46:07.020Z,9.00
2022-10-01T18:49:01.463Z,9.00
2022-10-01T18:51:52.750Z,9.00
2022-10-01T18:54:40.133Z,8.90
2022-10-01T18:57:16.324Z,9.00
2022-10-01T18:59:49.938Z,9.00
2022-10-01T19:02:38.928Z,8.90
2022-10-01T19:05:27.026Z,8.90
2022-10-01T19:08:00.075Z,9.00
2022-10-01T19:10:41.712Z,9.00
2022-10-01T19:13:16.184Z,9.10
2022-10-01T19:16:01.504Z,9.30
2022-10-01T19:18:47.312Z,9.40
2022-10-01T19:21:37.879Z,9.40
2022-10-01T19:24:26.449Z,9.50
2022-10-01T19:27:13.872Z,9.50
2022-10-01T19:30:02.117Z,9.40
2022-10-01T19:32:41.202Z,9.30
2022-10-01T19:35:27.888Z,9.30
2022-10-01T19:38:11.319Z,9.30
2022-10-01T19:40:48.716Z,9.30
2022-10-01T19:43:47.958Z,9.30
2022-10-01T19:46:19.179Z,9.30
2022-10-01T19:49:07.998Z,9.50
2022-10-01T19:51:36.927Z,9.40
2022-10-01T19:54:03.953Z,9.40
2022-10-01T19:56:34.075Z,9.40
2022-10-01T19:59:11.109Z,9.60
2022-10-01T20:01:44.267Z,9.60
2022-10-01T20:04:34.813Z,9.80
2022-10-01T20:07:31.272Z,9.80
2022-10-01T20:10:01.661Z,10.00
2022-10-01T20:12:41.522Z,10.00
2022-10-01T20:15:46.016Z,10.10
2022-10-01T20:18:49.140Z,10.10
2022-10-01T20:21:45.931Z,10.10
2022-10-01T20:24:44.481Z,10.10
2022-10-01T20:27:36.768Z,10.00
2022-10-01T20:30:09.100Z,10.00
2022-10-01T20:33:08.936Z,10.00
2022-10-01T20:35:50.333Z,10.00
2022-10-01T20:38:24.287Z,9.90
2022-10-01T20:40:55.469Z,9.90
2022-10-01T20:43:33.690Z,9.90
2022-10-01T20:46:25.280Z,9.80
2022-10-01T20:49:09.052Z,9.80
2022-10-01T20:51:46.128Z,9.80
2022-10-01T20:54:23.314Z,9.80
2022-10-01T20:57:10.882Z,9.70
2022-10-01T20:59:42.806Z,9.70
2022-10-01T21:02:32.895Z,9.70
2022-10-01T21:05:06.127Z,9.60
2022-10-01T21:07:39.420Z,9.60
2022-10-01T21:10:49.935Z,9.60
2022-10-01T21:13:55.495Z,9.50
2022-10-01T21:16:50.414Z,9.50
2022-10-01T21:19:47.140Z,9.50
2022-10-01T21:22:28.225Z,9.50
2022-10-01T21:25:10.434Z,9.50
2022-10-01T21:28:05.406Z,9.50
2022-10-01T21:30:58.239Z,9.50
2022-10-01T21:33:32.431Z,9.40
2022-10-01T21:36:09.149Z,9.30
2022-10-01T21:38:45.618Z,9.30
2022-10-01T21:41:36.631Z,9.20
2022-10-01T21:44:11.215Z,9.20
2022-10-01T21:47:09.711Z,9.20
2022-10-01T21:50:05.478Z,9.10
2022-10-01T21:53:10.597Z,9.10
2022-10-01T21:56:15.548Z,9.00
2022-10-01T21:58:57.713Z,9.00
2022-10-01T22:01:35.624Z,8.90
2022-10-01T22:04:38.422Z,8.80
2022-10-01T22:07:31.529Z,8.60
2022-10-01T22:10:12.664Z,8.40
2022-10-01T22:12:42.630Z,8.20
2022-10-01T22:15:25.105Z,8.10
2022-10-01T22:17:54.891Z,8.00
2022-10-01T22:20:27.500Z,7.90
2022-10-01T22:22:59.228Z,7.80
2022-10-01T22:25:27.159Z,7.70
2022-10-01T22:28:18.946Z,7.70
2022-10-01T22:30:48.197Z,7.60
2022-10-01T22:33:20.276Z,7.70
2022-10-01T22:35:56.860Z,7.60
2022-10-01T22:38:26.060Z,7.50
2022-10-01T22:41:13.772Z,7.40
2022-10-01T22:43:43.068Z,7.30
2022-10-01T22:46:10.082Z,7.30
2022-10-01T22:48:53.636Z,7.40
2022-10-01T22:51:34.707Z,7.40
2022-10-01T22:54:18.192Z,7.40
2022-10-01T22:57:12.712Z,7.50
2022-10-01T23:00:01.070Z,7.50
2022-10-01T23:02:56.505Z,7.60
2022-10-01T23:05:26.311Z,7.50
2022-10-01T23:08:18.214Z,7.50
2022-10-01T23:10:58.772Z,7.50
2022-10-01T23:13:47.676Z,7.40
2022-10-01T23:16:43.514Z,7.30
2022-10-01T23:19:41.386Z,7.30
2022-10-01T23:22:35.685Z,7.30
2022-10-01T23:25:16.040Z,7.20
2022-10-01T23:28:00.925Z,7.20
2022-10-01T23:30:53.124Z,7.20
2022-10-01T23:33:22.962Z,7.10
2022-10-01T23:36:08.449Z,7.00
2022-10-01T23:38:46.077Z,7.00
2022-10-01T23:41:23.778Z,6.90
2022-10-01T23:43:53.592Z,6.80
2022-10-01T23:46:36.654Z,6.80
2022-10-01T23:49:17.896Z,6.80
2022-10-01T23:52:02.293Z,6.80
2022-10-01T23:54:53.692Z,6.80
2022-10-01T23:57:26.770Z,6.70
